• Join FlightAware (Why Join?)
  • Login
  • US Flag 
04:48PM EDT


 

Airport Tracker/Info


-or-


 

Live Flight TrackerFlight Track Log ✈ UAL152 ✈ 11-Apr-2013 ✈ KEWR - EDDS / STR

Flight Track Log - Related Links

Times and Time Zones

All times are in EDT time to prevent confusion due to time zone crossing. See the UAL152 flight status page for this flight to view local times or setup timezone preferences in your user account.

Time Position Orientation Groundspeed Altitude Reporting Facility
EDT Latitude Longitude Course Direction KTS MPH feet Rate Location/Type
06:20PM 40.7500 -74.1333 53° Northeast 193 222 3,100  Level New York TRACON
06:21PM 40.9526 -73.7781 56° Northeast  Level FlightAware Approximate
06:21PM 40.8167 -74.0833 30° Northeast 256 295 4,900  Level New York TRACON
06:22PM 41.0369 -73.6429 56° Northeast  Level FlightAware Approximate
06:22PM 40.9333 -73.9703 36° Northeast 322 371 7,600  Level Boston Center
06:23PM 41.1241 -73.5030 46° Northeast  Level FlightAware Approximate
06:23PM 40.9783 -73.8697 59° Northeast 304 350 10,400  Level Boston Center
06:24PM 41.2102 -73.3613 53° Northeast  Level FlightAware Approximate
06:24PM 41.0319 -73.7525 59° Northeast 345 397 12,200  Level Boston Center
06:25PM 41.3076 -73.2367 53° Northeast  Level FlightAware Approximate
06:26PM 41.0875 -73.6297 59° Northeast 381 438 14,700  Level Boston Center
06:26PM 41.1553 -73.5042 54° Northeast 408 470 16,900 1,620 Climbing Boston Center
06:27PM 41.2231 -73.3950 50° Northeast 425 489 18,000 1,680 Climbing Boston Center
06:28PM 41.3117 -73.2553 50° Northeast 430 495 20,400 2,220 Climbing Boston Center
06:30PM 41.3875 -73.1261 52° Northeast 435 501 22,600 2,100 Climbing Boston Center
06:31PM 41.4531 -72.9800 59° Northeast 450 518 24,700 1,860 Climbing Boston Center
06:31PM 41.5181 -72.8311 60° Northeast 456 525 26,300 1,500 Climbing Boston Center
06:32PM 41.5831 -72.6761 61° Northeast 464 534 27,700 1,320 Climbing Boston Center
06:33PM 41.6189 -72.4983 75° East 488 562 29,000 600 Climbing Boston Center
06:35PM 41.6397 -72.3122 81° East 488 562 29,000  Level Boston Center
06:36PM 41.6642 -72.1317 80° East 488 562 29,000  Level Boston Center
06:36PM 41.6886 -71.9536 80° East 488 562 29,000  Level Boston Center
06:37PM 41.7106 -71.7700 81° East 488 562 29,000  Level Boston Center
06:38PM 41.7325 -71.5889 81° East 488 562 29,000  Level Boston Center
06:39PM 41.7581 -71.4328 78° East 483 556 29,000  Level Boston Center
06:41PM 41.7772 -71.2486 82° East 489 563 29,000 600 Level Boston Center
06:42PM 41.7981 -71.0672 81° East 489 563 30,300 960 Climbing Boston Center
06:42PM 41.8206 -70.8800 81° East 494 568 31,000 780 Climbing Boston Center
06:43PM 41.8406 -70.6761 82° East 504 580 31,900 1,020 Climbing Boston Center
06:44PM 41.8583 -70.4917 83° East 504 580 33,100 1,260 Climbing Boston Center
06:45PM 41.8819 -70.3014 80° East 504 580 34,500 1,260 Climbing Boston Center
06:47PM 41.8992 -70.1139 83° East 504 580 35,700 720 Climbing Boston Center
06:48PM 41.9200 -69.9178 82° East 511 588 36,000 120 Climbing Boston Center
06:48PM 41.9411 -69.7494 80° East 511 588 36,000  Level Boston Center
06:50PM 41.9553 -69.5561 84° East 511 588 36,000  Level Boston Center
06:50PM 41.9794 -69.3706 80° East 511 588 36,000  Level Boston Center
06:51PM 41.9928 -69.1772 85° East 506 582 36,000  Level Boston Center
06:52PM 42.0181 -68.9775 80° East 500 575 36,000  Level Boston Center
06:53PM 42.0372 -68.7919 82° East 500 575 36,000  Level Boston Center
06:54PM 42.0333 -68.7167 94° East 500 575 36,000  Level Moncton Center
06:54PM 42.0542 -68.6033 76° East 505 581 36,000  Level Boston Center
06:56PM 42.0725 -68.4178 82° East 505 581 36,000  Level Boston Center
06:56PM 42.0908 -68.2317 82° East 505 581 36,000  Level Boston Center
06:57PM 42.1064 -68.0403 84° East 505 581 36,000  Level Boston Center
06:58PM 42.1242 -67.8514 83° East 502 578 36,000  Level Boston Center
06:59PM 42.1167 -67.7667 97° East 510 587 36,000  Level Moncton Center
07:00PM 42.1333 -67.5667 84° East 520 598 36,000  Level Moncton Center
07:01PM 42.1500 -67.3833 83° East 510 587 36,000  Level Moncton Center
07:02PM 42.1747 -67.2842 71° East 508 585 36,000  Level Boston Center
07:03PM 42.1889 -67.0925 84° East 508 585 36,000  Level Boston Center
07:03PM 42.1833 -67.0167 96° East 510 587 36,000  Level Moncton Center
07:04PM 42.2333 -66.8167 71° East 500 575 36,000  Level Moncton Center
07:05PM 42.3000 -66.6500 62° Northeast 500 575 36,000  Level Moncton Center
07:06PM 42.3500 -66.5000 66° East 500 575 36,000  Level Moncton Center
07:07PM 42.4000 -66.3167 70° East 500 575 36,000  Level Moncton Center
07:08PM 42.4500 -66.1333 70° East 510 587 36,000  Level Moncton Center
07:09PM 42.5000 -65.9667 68° East 500 575 36,000  Level Moncton Center
07:10PM 42.5500 -65.7833 70° East 500 575 36,000  Level Moncton Center
07:11PM 42.6167 -65.6000 64° Northeast 500 575 36,000  Level Moncton Center
07:12PM 42.6667 -65.4333 68° East 500 575 36,000  Level Moncton Center
07:13PM 42.7167 -65.2667 68° East 500 575 36,000  Level Moncton Center
07:14PM 42.7667 -65.0833 70° East 500 575 36,000  Level Moncton Center
07:15PM 42.8167 -64.9000 70° East 510 587 36,000  Level Moncton Center
07:16PM 42.8667 -64.7167 70° East 500 575 36,000  Level Moncton Center
07:17PM 42.9167 -64.5500 68° East 500 575 36,000  Level Moncton Center
07:18PM 42.9667 -64.3500 71° East 510 587 36,000  Level Moncton Center
07:19PM 43.0167 -64.1833 68° East 510 587 36,000  Level Moncton Center
07:20PM 43.0667 -64.0167 68° East 510 587 36,000  Level Moncton Center
07:21PM 43.1167 -63.8333 69° East 510 587 36,000  Level Moncton Center
07:22PM 43.1667 -63.6333 71° East 500 575 36,000  Level Moncton Center
07:23PM 43.2167 -63.4500 69° East 510 587 36,000  Level Moncton Center
07:24PM 43.2667 -63.2667 69° East 520 598 36,000  Level Moncton Center
07:25PM 43.3167 -63.0833 69° East 520 598 36,000  Level Moncton Center
07:26PM 43.3667 -62.9000 69° East 520 598 36,000  Level Moncton Center
07:27PM 43.4167 -62.7167 69° East 520 598 36,000  Level Moncton Center
07:28PM 43.4667 -62.5333 69° East 520 598 36,000  Level Moncton Center
07:29PM 43.5167 -62.3500 69° East 520 598 36,000  Level Moncton Center
07:30PM 43.5667 -62.1667 69° East 520 598 36,000  Level Moncton Center
07:31PM 43.6000 -61.9500 78° East 520 598 36,000  Level Moncton Center
07:32PM 43.6500 -61.7833 67° East 520 598 36,000  Level Moncton Center
07:33PM 43.7167 -61.5833 65° Northeast 530 610 36,000  Level Moncton Center
07:34PM 43.7667 -61.3833 71° East 530 610 36,000  Level Moncton Center
07:35PM 43.8000 -61.2000 76° East 520 598 36,000  Level Moncton Center
07:36PM 43.8500 -61.0167 69° East 530 610 36,000  Level Moncton Center
07:37PM 43.9000 -60.8167 71° East 530 610 36,000  Level Moncton Center
07:38PM 43.9333 -60.6167 77° East 530 610 36,000  Level Moncton Center
07:39PM 44.0000 -60.4167 65° Northeast 530 610 36,000  Level Moncton Center
07:40PM 44.0333 -60.2333 76° East 530 610 36,000  Level Moncton Center
07:41PM 44.0833 -60.0167 72° East 530 610 36,000  Level Moncton Center
07:42PM 44.1333 -59.8333 69° East 530 610 36,000  Level Moncton Center
07:43PM 44.1833 -59.6333 71° East 540 621 36,000  Level Moncton Center
07:44PM 44.2333 -59.4500 69° East 540 621 36,000  Level Moncton Center
07:45PM 44.2667 -59.2333 78° East 530 610 36,000  Level Moncton Center
07:46PM 44.3000 -59.0500 76° East 540 621 36,000  Level Moncton Center
07:47PM 44.3500 -58.8500 71° East 540 621 36,000  Level Moncton Center
07:48PM 44.4000 -58.6333 72° East 540 621 36,000  Level Moncton Center
07:49PM 44.4500 -58.4500 69° East 540 621 36,000  Level Moncton Center
07:50PM 44.4833 -58.2333 78° East 540 621 36,000 -600 Level Moncton Center
07:51PM 44.5167 -58.0333 77° East 540 621 34,800 -1,020 Descending Moncton Center
07:52PM 44.5833 -57.8500 63° Northeast 550 633 34,000 -420 Descending Moncton Center
07:53PM 44.6167 -57.6333 78° East 540 621 34,000  Level Moncton Center
07:54PM 44.6667 -57.4333 71° East 550 633 34,000  Level Moncton Center
07:55PM 44.7000 -57.2167 78° East 560 644 34,000  Level Moncton Center
07:56PM 44.7500 -57.0000 72° East 560 644 34,000  Level Moncton Center
07:57PM 44.8000 -56.8000 71° East 560 644 34,000  Level Moncton Center
07:58PM 44.8333 -56.5833 78° East 560 644 34,000  Level Moncton Center
07:59PM 44.8833 -56.3667 72° East 560 644 34,000  Level Moncton Center
08:00PM 44.9167 -56.1667 77° East 560 644 34,000  Level Moncton Center
08:01PM 44.9667 -55.9500 72° East 560 644 34,000  Level Moncton Center
08:03PM 45.0500 -55.5333 74° East 560 644 34,000  Level Moncton Center
08:04PM 45.0833 -55.3333 77° East 550 633 34,000 360 Level Moncton Center
08:05PM 45.1167 -55.1000 78° East 560 644 34,800 960 Climbing Moncton Center
08:05PM 45.1500 -55.0167 60° Northeast 560 644 35,400 1,500 Climbing Gander Center
08:06PM 45.1667 -54.9000 79° East 560 644 36,300 1,500 Climbing Moncton Center
08:06PM 45.1833 -54.8167 74° East 560 644 36,900 480 Climbing Gander Center
08:07PM 45.2167 -54.5833 78° East 560 644 37,000 60 Climbing Gander Center
08:08PM 45.2500 -54.4667 68° East 570 656 37,000  Level Moncton Center
08:09PM 45.2833 -54.2500 78° East 560 644 37,000  Level Moncton Center
08:10PM 45.3333 -54.0333 72° East 570 656 37,000  Level Moncton Center
08:11PM 45.3500 -53.8167 84° East 580 667 37,000  Level Moncton Center
08:11PM 45.3833 -53.7333 60° Northeast 580 667 37,000  Level Gander Center
08:12PM 45.4000 -53.5833 81° East 580 667 37,000  Level Moncton Center
08:12PM 45.4167 -53.5000 74° East 580 667 37,000  Level Gander Center
08:13PM 45.4500 -53.3667 70° East 580 667 37,000  Level Moncton Center
08:14PM 45.4667 -53.1333 84° East 580 667 37,000  Level Moncton Center
08:15PM 45.5167 -52.9167 72° East 590 679 37,000  Level Moncton Center
08:16PM 45.5667 -52.6833 73° East 580 667 37,000  Level Moncton Center
08:16PM 45.5833 -52.6000 74° East 580 667 37,000  Level Gander Center
08:17PM 45.6000 -52.4500 81° East 590 679 37,000  Level Gander Center
08:18PM 45.6333 -52.2333 78° East 590 679 37,000  Level Gander Center
08:18PM 45.6500 -52.1333 77° East 580 667 37,000  Level Gander Center
08:19PM 45.6667 -52.0167 78° East 590 679 37,000  Level Moncton Center
08:20PM 45.7000 -51.7833 78° East 590 679 37,000  Level Moncton Center
08:21PM 45.7333 -51.5667 77° East 590 679 37,000  Level Moncton Center
08:22PM 45.7833 -51.3333 73° East 590 679 37,000  Level Moncton Center
08:23PM 45.8000 -51.1167 84° East 590 679 37,000  Level Moncton Center
08:23PM 45.8333 -51.0167 64° Northeast 590 679 37,000  Level Gander Center
08:24PM 45.8500 -50.8667 81° East 600 690 37,000  Level Gander Center
08:25PM 45.8833 -50.6500 77° East 600 690 37,000  Level Gander Center
08:26PM 45.9167 -50.4000 79° East 600 690 37,000  Level Gander Center
08:27PM 45.9500 -50.1500 79° East 600 690 37,000  Level Gander Center
08:28PM 45.9667 -49.9500 83° East 590 679 37,000  Level Gander Center
08:29PM 46.0167 -49.7000 74° East 590 679 37,000  Level Gander Center
08:30PM 46.0500 -49.4833 77° East 590 679 37,000  Level Gander Center
08:31PM 46.0833 -49.2500 78° East 580 667 37,000  Level Gander Center
08:31PM 46.1000 -49.1667 74° East 570 656 37,000  Level Gander Center
08:32PM 46.1167 -48.9500 84° East 570 656 37,000  Level Gander Center
08:33PM 46.1333 -48.8000 81° East 570 656 37,000  Level Gander Center
08:34PM 46.1833 -48.5667 73° East 560 644 37,000  Level Gander Center
08:34PM 46.1833 -48.5000 90° East 560 644 37,000  Level Gander Center
08:35PM 46.2167 -48.3000 76° East 550 633 37,000  Level Gander Center
08:36PM 46.2333 -48.0667 84° East 560 644 37,000  Level Gander Center
08:37PM 46.2500 -47.8500 84° East 540 621 37,000  Level Gander Center
08:38PM 46.3000 -47.6333 71° East 550 633 37,000  Level Gander Center
08:39PM 46.3167 -47.4167 84° East 550 633 37,000  Level Gander Center
08:40PM 46.3167 -47.1833 90° East 550 633 37,000  Level Gander Center
08:41PM 46.3667 -47.0667 58° Northeast 550 633 37,000  Level Gander Center
08:42PM 46.3667 -46.8333 90° East 560 644 37,000  Level Gander Center
08:44PM 46.3881 -46.5929 80° East  Level FlightAware Approximate
08:51PM 46.5488 -45.2136 80° East  Level FlightAware Approximate
08:52PM 46.5704 -45.0159 81° East  Level FlightAware Approximate
08:53PM 46.5916 -44.8181 81° East  Level FlightAware Approximate
08:54PM 46.6125 -44.6201 81° East  Level FlightAware Approximate
08:55PM 46.6331 -44.4219 81° East  Level FlightAware Approximate
08:56PM 46.6533 -44.2236 81° East  Level FlightAware Approximate
08:57PM 46.6732 -44.0252 82° East  Level FlightAware Approximate
08:58PM 46.6927 -43.8266 82° East  Level FlightAware Approximate
08:59PM 46.7119 -43.6279 82° East  Level FlightAware Approximate
09:00PM 46.7308 -43.4290 82° East  Level FlightAware Approximate
09:01PM 46.7493 -43.2300 82° East  Level FlightAware Approximate
09:02PM 46.7675 -43.0308 82° East  Level FlightAware Approximate
09:03PM 46.7853 -42.8316 82° East  Level FlightAware Approximate
09:04PM 46.8027 -42.6321 83° East  Level FlightAware Approximate
09:05PM 46.8199 -42.4326 83° East  Level FlightAware Approximate
09:06PM 46.8367 -42.2329 83° East  Level FlightAware Approximate
09:07PM 46.8531 -42.0332 83° East  Level FlightAware Approximate
09:08PM 46.8692 -41.8332 83° East  Level FlightAware Approximate
09:09PM 46.8849 -41.6332 83° East  Level FlightAware Approximate
09:10PM 46.9003 -41.4331 84° East  Level FlightAware Approximate
09:11PM 46.9153 -41.2328 84° East  Level FlightAware Approximate
09:12PM 46.9300 -41.0325 84° East  Level FlightAware Approximate
09:13PM 46.9443 -40.8320 84° East  Level FlightAware Approximate
09:14PM 46.9583 -40.6314 84° East  Level FlightAware Approximate
09:15PM 46.9719 -40.4307 84° East  Level FlightAware Approximate
09:16PM 46.9852 -40.2299 84° East  Level FlightAware Approximate
09:17PM 46.9982 -40.0290 85° East  Level FlightAware Approximate
09:18PM 47.0245 -39.8311 78° East  Level FlightAware Approximate
09:19PM 47.0529 -39.6335 78° East  Level FlightAware Approximate
09:20PM 47.0809 -39.4356 78° East  Level FlightAware Approximate
09:21PM 47.1086 -39.2376 78° East  Level FlightAware Approximate
09:22PM 47.1359 -39.0394 78° East  Level FlightAware Approximate
09:23PM 47.1629 -38.8409 79° East  Level FlightAware Approximate
09:24PM 47.1896 -38.6423 79° East  Level FlightAware Approximate
09:25PM 47.2159 -38.4435 79° East  Level FlightAware Approximate
09:26PM 47.2419 -38.2444 79° East  Level FlightAware Approximate
09:27PM 47.2675 -38.0452 79° East  Level FlightAware Approximate
09:28PM 47.2928 -37.8457 79° East  Level FlightAware Approximate
09:29PM 47.3177 -37.6461 79° East  Level FlightAware Approximate
09:30PM 47.3423 -37.4463 80° East  Level FlightAware Approximate
09:31PM 47.3666 -37.2463 80° East  Level FlightAware Approximate
09:32PM 47.3904 -37.0462 80° East  Level FlightAware Approximate
09:33PM 47.4140 -36.8458 80° East  Level FlightAware Approximate
09:34PM 47.4372 -36.6453 80° East  Level FlightAware Approximate
09:35PM 47.4600 -36.4446 80° East  Level FlightAware Approximate
09:36PM 47.4825 -36.2437 81° East  Level FlightAware Approximate
09:37PM 47.5046 -36.0427 81° East  Level FlightAware Approximate
09:38PM 47.5264 -35.8415 81° East  Level FlightAware Approximate
09:39PM 47.5479 -35.6401 81° East  Level FlightAware Approximate
09:40PM 47.5690 -35.4385 81° East  Level FlightAware Approximate
09:41PM 47.5897 -35.2368 81° East  Level FlightAware Approximate
09:42PM 47.6101 -35.0350 81° East  Level FlightAware Approximate
09:43PM 47.6301 -34.8330 82° East  Level FlightAware Approximate
09:44PM 47.6497 -34.6308 82° East  Level FlightAware Approximate
09:45PM 47.6691 -34.4285 82° East  Level FlightAware Approximate
09:46PM 47.6880 -34.2260 82° East  Level FlightAware Approximate
09:47PM 47.7066 -34.0234 82° East  Level FlightAware Approximate
09:48PM 47.7249 -33.8206 82° East  Level FlightAware Approximate
09:49PM 47.7427 -33.6177 82° East  Level FlightAware Approximate
09:50PM 47.7603 -33.4147 83° East  Level FlightAware Approximate
09:51PM 47.7774 -33.2115 83° East  Level FlightAware Approximate
09:52PM 47.7943 -33.0082 83° East  Level FlightAware Approximate
09:53PM 47.8107 -32.8047 83° East  Level FlightAware Approximate
09:54PM 47.8268 -32.6012 83° East  Level FlightAware Approximate
09:55PM 47.8425 -32.3975 83° East  Level FlightAware Approximate
09:56PM 47.8579 -32.1937 84° East  Level FlightAware Approximate
09:57PM 47.8729 -31.9897 84° East  Level FlightAware Approximate
09:58PM 47.8876 -31.7857 84° East  Level FlightAware Approximate
09:59PM 47.9018 -31.5815 84° East  Level FlightAware Approximate
10:00PM 47.9157 -31.3773 84° East  Level FlightAware Approximate
10:01PM 47.9293 -31.1729 84° East  Level FlightAware Approximate
10:02PM 47.9425 -30.9684 84° East  Level FlightAware Approximate
10:03PM 47.9553 -30.7638 85° East  Level FlightAware Approximate
10:04PM 47.9678 -30.5591 85° East  Level FlightAware Approximate
10:05PM 47.9799 -30.3543 85° East  Level FlightAware Approximate
10:06PM 47.9917 -30.1494 85° East  Level FlightAware Approximate
10:07PM 48.0126 -29.9475 70° East  Level FlightAware Approximate
10:08PM 48.0587 -29.7536 70° East  Level FlightAware Approximate
10:09PM 48.1045 -29.5593 70° East  Level FlightAware Approximate
10:10PM 48.1499 -29.3647 71° East  Level FlightAware Approximate
10:11PM 48.1951 -29.1697 71° East  Level FlightAware Approximate
10:12PM 48.2399 -28.9744 71° East  Level FlightAware Approximate
10:13PM 48.2844 -28.7788 70° East  Level FlightAware Approximate
10:14PM 48.3312 -28.5841 70° East  Level FlightAware Approximate
10:15PM 48.3776 -28.3891 70° East  Level FlightAware Approximate
10:16PM 48.4237 -28.1938 70° East  Level FlightAware Approximate
10:17PM 48.4694 -27.9981 71° East  Level FlightAware Approximate
10:18PM 48.5148 -27.8020 71° East  Level FlightAware Approximate
10:19PM 48.5599 -27.6056 71° East  Level FlightAware Approximate
10:20PM 48.6047 -27.4089 71° East  Level FlightAware Approximate
10:21PM 48.6491 -27.2118 71° East  Level FlightAware Approximate
10:22PM 48.6931 -27.0144 71° East  Level FlightAware Approximate
10:23PM 48.7369 -26.8166 71° East  Level FlightAware Approximate
10:24PM 48.7803 -26.6184 72° East  Level FlightAware Approximate
10:25PM 48.8233 -26.4200 72° East  Level FlightAware Approximate
10:26PM 48.8661 -26.2212 72° East  Level FlightAware Approximate
10:27PM 48.9084 -26.0220 72° East  Level FlightAware Approximate
10:28PM 48.9505 -25.8225 72° East  Level FlightAware Approximate
10:29PM 48.9921 -25.6227 72° East  Level FlightAware Approximate
10:30PM 49.0335 -25.4226 72° East  Level FlightAware Approximate
10:31PM 49.0745 -25.2221 73° East  Level FlightAware Approximate
10:32PM 49.1151 -25.0212 73° East  Level FlightAware Approximate
10:33PM 49.1554 -24.8201 73° East  Level FlightAware Approximate
10:34PM 49.1954 -24.6186 73° East  Level FlightAware Approximate
10:35PM 49.2350 -24.4168 73° East  Level FlightAware Approximate
10:36PM 49.2742 -24.2147 73° East  Level FlightAware Approximate
10:37PM 49.3131 -24.0123 74° East  Level FlightAware Approximate
10:38PM 49.3517 -23.8095 74° East  Level FlightAware Approximate
10:39PM 49.3898 -23.6065 74° East  Level FlightAware Approximate
10:40PM 49.4277 -23.4031 74° East  Level FlightAware Approximate
10:41PM 49.4651 -23.1994 74° East  Level FlightAware Approximate
10:42PM 49.5022 -22.9954 74° East  Level FlightAware Approximate
10:43PM 49.5390 -22.7910 74° East  Level FlightAware Approximate
10:44PM 49.5754 -22.5864 75° East  Level FlightAware Approximate
10:45PM 49.6114 -22.3815 75° East  Level FlightAware Approximate
10:46PM 49.6471 -22.1763 75° East  Level FlightAware Approximate
10:47PM 49.6824 -21.9707 75° East  Level FlightAware Approximate
10:48PM 49.7173 -21.7649 75° East  Level FlightAware Approximate
10:49PM 49.7519 -21.5588 75° East  Level FlightAware Approximate
10:50PM 49.7861 -21.3524 76° East  Level FlightAware Approximate
10:51PM 49.8199 -21.1457 76° East  Level FlightAware Approximate
10:52PM 49.8534 -20.9387 76° East  Level FlightAware Approximate
10:53PM 49.8865 -20.7314 76° East  Level FlightAware Approximate
10:54PM 49.9192 -20.5238 76° East  Level FlightAware Approximate
10:55PM 49.9516 -20.3160 76° East  Level FlightAware Approximate
10:56PM 49.9836 -20.1079 76° East  Level FlightAware Approximate
10:57PM 50.0052 -19.8971 85° East  Level FlightAware Approximate
10:58PM 50.0157 -19.6836 86° East  Level FlightAware Approximate
10:59PM 50.0257 -19.4699 86° East  Level FlightAware Approximate
11:00PM 50.0354 -19.2562 86° East  Level FlightAware Approximate
11:01PM 50.0447 -19.0424 86° East  Level FlightAware Approximate
11:02PM 50.0536 -18.8285 86° East  Level FlightAware Approximate
11:03PM 50.0621 -18.6145 86° East  Level FlightAware Approximate
11:04PM 50.0702 -18.4005 87° East  Level FlightAware Approximate
11:05PM 50.0779 -18.1864 87° East  Level FlightAware Approximate
11:06PM 50.0853 -17.9722 87° East  Level FlightAware Approximate
11:07PM 50.0922 -17.7580 87° East  Level FlightAware Approximate
11:08PM 50.0987 -17.5437 87° East  Level FlightAware Approximate
11:09PM 50.1051 -17.3293 87° East  Level FlightAware Approximate
11:10PM 50.1112 -17.1149 87° East  Level FlightAware Approximate
11:11PM 50.1169 -16.9005 88° East  Level FlightAware Approximate
11:12PM 50.1222 -16.6860 88° East  Level FlightAware Approximate
11:13PM 50.1271 -16.4715 88° East  Level FlightAware Approximate
11:14PM 50.1316 -16.2569 88° East  Level FlightAware Approximate
11:15PM 50.1357 -16.0422 88° East  Level FlightAware Approximate
11:16PM 50.1394 -15.8276 88° East  Level FlightAware Approximate
11:17PM 50.1427 -15.6129 89° East  Level FlightAware Approximate
11:18PM 50.1456 -15.3982 89° East  Level FlightAware Approximate
11:19PM 50.1482 -15.1834 89° East  Level FlightAware Approximate
11:20PM 50.1503 -14.9687 89° East  Level FlightAware Approximate
11:21PM 50.1519 -14.7539 89° East  Level FlightAware Approximate
11:22PM 50.1531 -14.5391 89° East  Level FlightAware Approximate
11:23PM 50.1539 -14.3243 90° East  Level FlightAware Approximate
11:24PM 50.1543 -14.1095 90° East  Level FlightAware Approximate
11:25PM 50.1543 -13.8947 90° East  Level FlightAware Approximate
11:26PM 50.1540 -13.6799 90° East  Level FlightAware Approximate
11:27PM 50.1532 -13.4651 90° East  Level FlightAware Approximate
11:28PM 50.1520 -13.2503 90° East  Level FlightAware Approximate
11:29PM 50.1505 -13.0355 91° East  Level FlightAware Approximate
11:30PM 50.1485 -12.8207 91° East  Level FlightAware Approximate
11:31PM 50.1462 -12.6060 91° East  Level FlightAware Approximate
11:32PM 50.1434 -12.3912 91° East  Level FlightAware Approximate
11:33PM 50.1403 -12.1765 91° East  Level FlightAware Approximate
11:34PM 50.1367 -11.9619 91° East  Level FlightAware Approximate
11:35PM 50.1328 -11.7472 92° East  Level FlightAware Approximate
11:36PM 50.1284 -11.5326 92° East  Level FlightAware Approximate
11:37PM 50.1237 -11.3181 92° East  Level FlightAware Approximate
11:38PM 50.1186 -11.1036 92° East  Level FlightAware Approximate
11:39PM 50.1131 -10.8891 92° East  Level FlightAware Approximate
11:40PM 50.1072 -10.6747 92° East  Level FlightAware Approximate
11:41PM 50.1009 -10.4603 93° East  Level FlightAware Approximate
11:42PM 50.0942 -10.2460 93° East  Level FlightAware Approximate
11:43PM 50.0871 -10.0318 93° East  Level FlightAware Approximate
11:44PM 50.0796 -9.8176 93° East  Level FlightAware Approximate
11:45PM 50.0717 -9.6035 93° East  Level FlightAware Approximate
11:46PM 50.0634 -9.3895 93° East  Level FlightAware Approximate
11:47PM 50.0547 -9.1755 94° East  Level FlightAware Approximate
11:48PM 50.0457 -8.9616 94° East  Level FlightAware Approximate
11:49PM 50.0362 -8.7478 94° East  Level FlightAware Approximate
11:50PM 50.0263 -8.5341 94° East  Level FlightAware Approximate
11:51PM 50.0161 -8.3205 94° East  Level FlightAware Approximate
11:52PM 50.0055 -8.1070 94° East  Level FlightAware Approximate
11:53PM 49.9889 -7.8946 99° East  Level FlightAware Approximate
11:54PM 49.9663 -7.6835 99° East  Level FlightAware Approximate
11:55PM 49.9434 -7.4725 100° East  Level FlightAware Approximate
11:56PM 49.9201 -7.2618 100° East  Level FlightAware Approximate
11:57PM 49.8966 -7.0512 99° East  Level FlightAware Approximate
11:58PM 49.8742 -6.8405 99° East  Level FlightAware Approximate
11:59PM 49.8515 -6.6299 99° East  Level FlightAware Approximate
12:00AM 49.8284 -6.4195 100° East  Level FlightAware Approximate
12:01AM 49.8048 -6.2094 100° East  Level FlightAware Approximate
12:02AM 49.7813 -5.9993 100° East  Level FlightAware Approximate
12:03AM 49.7575 -5.7894 100° East  Level FlightAware Approximate
12:04AM 49.7333 -5.5797 100° East  Level FlightAware Approximate
12:05AM 49.7088 -5.3703 100° East  Level FlightAware Approximate
12:06AM 49.6838 -5.1610 100° East  Level FlightAware Approximate
12:07AM 49.6585 -4.9520 101° East  Level FlightAware Approximate
12:08AM 49.6328 -4.7431 101° East  Level FlightAware Approximate
12:09AM 49.6067 -4.5345 101° East  Level FlightAware Approximate
12:10AM 49.5737 -4.3308 128° Southeast  Level FlightAware Approximate
12:11AM 49.5653 -4.1223 91° East  Level FlightAware Approximate
12:12AM 49.5635 -3.9101 91° East  Level FlightAware Approximate
12:13AM 49.5613 -3.6979 91° East  Level FlightAware Approximate
12:14AM 49.5587 -3.4857 91° East  Level FlightAware Approximate
12:15AM 49.5557 -3.2736 91° East  Level FlightAware Approximate
12:16AM 49.5523 -3.0615 91° East  Level FlightAware Approximate
12:17AM 49.5485 -2.8495 91° East  Level FlightAware Approximate
12:18AM 49.5444 -2.6374 92° East  Level FlightAware Approximate
12:19AM 49.5398 -2.4255 92° East  Level FlightAware Approximate
12:20AM 49.5349 -2.2135 92° East  Level FlightAware Approximate
12:21AM 49.5300 -2.0016 92° East  Level FlightAware Approximate
12:22AM 49.5249 -1.7897 92° East  Level FlightAware Approximate
12:23AM 49.5194 -1.5778 92° East  Level FlightAware Approximate
12:24AM 49.5135 -1.3660 92° East  Level FlightAware Approximate
12:25AM 49.5072 -1.1543 93° East  Level FlightAware Approximate
12:26AM 49.5005 -0.9426 93° East  Level FlightAware Approximate
12:27AM 49.4935 -0.7310 93° East  Level FlightAware Approximate
12:28AM 49.4861 -0.5194 93° East  Level FlightAware Approximate
12:29AM 49.4782 -0.3079 93° East  Level FlightAware Approximate
12:30AM 49.4701 -0.0964 93° East  Level FlightAware Approximate
12:31AM 49.4615 0.1149 93° East  Level FlightAware Approximate
12:32AM 49.4525 0.3262 94° East  Level FlightAware Approximate
12:33AM 49.4431 0.5374 94° East  Level FlightAware Approximate
12:34AM 49.4334 0.7485 94° East  Level FlightAware Approximate
12:35AM 49.4233 0.9596 94° East  Level FlightAware Approximate
12:36AM 49.4128 1.1705 94° East  Level FlightAware Approximate
12:37AM 49.4019 1.3814 94° East  Level FlightAware Approximate
12:38AM 49.3884 1.5919 96° East  Level FlightAware Approximate
12:39AM 49.3742 1.8021 96° East  Level FlightAware Approximate
12:40AM 49.3596 2.0123 96° East  Level FlightAware Approximate
12:41AM 49.3446 2.2223 96° East  Level FlightAware Approximate
12:42AM 49.3292 2.4322 96° East  Level FlightAware Approximate
12:43AM 49.3134 2.6420 96° East  Level FlightAware Approximate
12:44AM 49.2976 2.8517 96° East  Level FlightAware Approximate
12:45AM 49.2833 3.0615 96° East  Level FlightAware Approximate
12:46AM 49.2686 3.2713 96° East  Level FlightAware Approximate
12:47AM 49.2534 3.4809 96° East  Level FlightAware Approximate
12:48AM 49.2380 3.6904 96° East  Level FlightAware Approximate
12:49AM 49.2221 3.8998 97° East  Level FlightAware Approximate
12:50AM 49.2059 4.1090 97° East  Level FlightAware Approximate
12:51AM 49.1892 4.3181 97° East  Level FlightAware Approximate
12:52AM 49.1722 4.5270 97° East  Level FlightAware Approximate
12:53AM 49.1549 4.7358 97° East  Level FlightAware Approximate
12:54AM 49.1371 4.9445 97° East  Level FlightAware Approximate
12:55AM 49.1190 5.1530 97° East  Level FlightAware Approximate
12:56AM 49.1005 5.3613 98° East  Level FlightAware Approximate
12:57AM 49.0832 5.5698 97° East  Level FlightAware Approximate
12:58AM 49.0654 5.7782 100° East  Level FlightAware Approximate
12:59AM 49.0417 5.9850 100° East  Level FlightAware Approximate
01:00AM 49.0176 6.1917 100° East  Level FlightAware Approximate
01:01AM 49.0030 6.3988 104° East  Level FlightAware Approximate
01:02AM 48.9776 6.6049 100° East  Level FlightAware Approximate
01:03AM 48.9527 6.8111 100° East  Level FlightAware Approximate
01:04AM 48.9359 7.0191 97° East  Level FlightAware Approximate
01:05AM 48.9198 7.2271 97° East  Level FlightAware Approximate
01:06AM 48.8985 7.4340 99° East  Level FlightAware Approximate
01:07AM 48.8758 7.6404 99° East  Level FlightAware Approximate
01:08AM 48.8527 7.8467 100° East  Level FlightAware Approximate
01:09AM 48.8286 8.0525 101° East  Level FlightAware Approximate
01:10AM 48.8013 8.2574 101° East  Level FlightAware Approximate
01:11AM 48.7804 8.4639 99° East  Level FlightAware Approximate
01:12AM 48.7568 8.6695 102° East  Level FlightAware Approximate
01:13AM 48.7299 8.8739 102° East  Level FlightAware Approximate
01:14AM 48.7008 9.0777 102° East  Level FlightAware Approximate
01:15AM 48.6833 9.2167 101° East  Level FlightAware Approximate
01:16AM 48.6899 9.2220 101° East  Level Estimated
01:17AM 48.6899 9.2220 101° East  Level Estimated
01:18AM 48.6899 9.2220 101° East  Level Estimated
01:19AM 48.6899 9.2220 101° East  Level Estimated
01:20AM 48.6899 9.2220 101° East  Level Estimated
01:21AM 48.6899 9.2220 101° East  Level Estimated
01:22AM 48.6899 9.2220 101° East  Level Estimated
01:23AM 48.6899 9.2220 101° East  Level Estimated
01:24AM 48.6899 9.2220 101° East  Level Estimated
01:25AM 48.6899 9.2220 101° East  Level Estimated
01:26AM 48.6899 9.2220 101° East  Level Estimated
01:27AM 48.6899 9.2220 101° East  Level Estimated
01:28AM 48.6899 9.2220 101° East  Level Estimated
01:29AM 48.6899 9.2220 101° East  Level Estimated
01:30AM 48.6899 9.2220 101° East  Level Estimated
01:31AM 48.6899 9.2220 101° East  Level Estimated